Time;durP1;ratioP1;P1;durP2;ratioP2;P2;SDS_P1;SDS_P2;PMS_P1;PMS_P2;Temp;Humidity;BMP_temperature;BMP_pressure;BME280_temperature;BME280_humidity;BME280_pressure;Samples;Min_cycle;Max_cycle;Signal;HPM_P1;HPM_P2
2021/09/20 00:00:03;;;;;;;3.03;2.60;;;;;;;11.87;75.87;100967.05;5151435;57;21188;-79
2021/09/20 00:05:10;;;;;;;3.13;2.80;;;;;;;11.85;75.88;100970.28;5151507;57;21156;-76
2021/09/20 00:10:17;;;;;;;4.10;3.17;;;;;;;11.88;75.91;100971.87;5151570;57;21192;-77
2021/09/20 00:15:22;;;;;;;10.57;3.20;;;;;;;11.79;75.88;100968.09;5151597;57;21209;-78
2021/09/20 00:20:28;;;;;;;4.53;3.20;;;;;;;11.74;76.19;100972.87;5151529;57;21218;-78
2021/09/20 00:25:34;;;;;;;5.80;2.90;;;;;;;11.72;76.30;100973.95;5151590;57;21547;-81
2021/09/20 00:30:40;;;;;;;4.60;3.00;;;;;;;11.72;76.48;100977.45;5180665;57;21221;-82
2021/09/20 00:35:46;;;;;;;4.27;3.17;;;;;;;11.73;76.68;100972.52;5187798;56;21160;-78
2021/09/20 00:40:52;;;;;;;5.10;3.27;;;;;;;11.72;76.77;100972.14;5190871;57;21163;-78
2021/09/20 00:45:58;;;;;;;5.83;3.30;;;;;;;11.74;76.95;100964.92;5190814;57;21128;-78
2021/09/20 00:51:05;;;;;;;15.20;5.50;;;;;;;11.79;77.09;100977.84;5190745;57;21213;-78
2021/09/20 00:56:11;;;;;;;12.60;5.57;;;;;;;11.78;77.01;100977.00;5190851;57;21160;-79
2021/09/20 01:01:17;;;;;;;6.90;3.57;;;;;;;11.71;77.14;100978.41;5190845;57;21198;-80
2021/09/20 01:06:23;;;;;;;9.57;3.53;;;;;;;11.70;77.36;100984.66;5185744;57;21565;-82
2021/09/20 01:11:29;;;;;;;8.27;3.77;;;;;;;11.73;77.49;100979.13;5179808;57;21255;-78
2021/09/20 01:16:35;;;;;;;5.23;3.33;;;;;;;11.80;77.72;100988.81;5179853;57;21620;-77
2021/09/20 01:21:41;;;;;;;4.57;3.30;;;;;;;11.83;77.81;100981.48;5179682;57;22477;-77
2021/09/20 01:26:46;;;;;;;7.20;3.33;;;;;;;11.87;78.07;100984.27;5180320;57;21564;-79
2021/09/20 01:31:54;;;;;;;5.23;4.23;;;;;;;11.88;77.66;100985.12;5208822;56;21188;-77
2021/09/20 01:37:00;;;;;;;5.23;3.43;;;;;;;11.86;77.81;100980.41;5185653;56;21166;-80
2021/09/20 01:42:08;;;;;;;4.47;3.60;;;;;;;11.88;78.11;100978.02;5175951;57;21452;-79
2021/09/20 01:47:14;;;;;;;6.20;3.50;;;;;;;11.90;78.16;100983.20;5176066;57;21183;-80
2021/09/20 01:52:20;;;;;;;4.67;3.23;;;;;;;11.89;78.13;100986.33;5176113;57;21155;-81
2021/09/20 01:57:26;;;;;;;4.07;2.57;;;;;;;11.85;77.87;100986.67;5175940;57;21104;-77
2021/09/20 02:02:32;;;;;;;12.07;3.67;;;;;;;11.81;77.85;100985.20;5175984;57;21092;-80
2021/09/20 02:07:38;;;;;;;4.00;3.60;;;;;;;11.80;78.20;100988.81;5175878;57;21744;-81
2021/09/20 02:12:45;;;;;;;3.63;3.03;;;;;;;11.78;78.39;100984.95;5143324;57;21245;-79
2021/09/20 02:17:51;;;;;;;4.50;3.43;;;;;;;11.76;78.89;100984.24;5175826;57;22086;-80
2021/09/20 02:22:57;;;;;;;7.77;4.20;;;;;;;11.74;78.90;100983.48;5169202;57;21293;-76
2021/09/20 02:28:02;;;;;;;6.50;4.80;;;;;;;11.80;79.08;100982.19;5166432;56;21176;-81
2021/09/20 02:33:08;;;;;;;6.30;4.60;;;;;;;11.85;79.22;100977.39;5245681;56;21284;-79
2021/09/20 02:38:14;;;;;;;8.23;5.53;;;;;;;11.82;79.19;100976.30;5292409;56;21585;-77
2021/09/20 02:43:20;;;;;;;6.10;4.57;;;;;;;11.74;79.20;100982.16;5303258;56;21206;-77
2021/09/20 02:48:26;;;;;;;8.97;3.77;;;;;;;11.75;79.53;100983.00;5302795;55;21186;-80
2021/09/20 02:53:33;;;;;;;5.73;4.17;;;;;;;11.82;79.70;100976.30;5303721;56;21154;-81
2021/09/20 02:58:39;;;;;;;7.73;4.20;;;;;;;11.79;79.57;100974.71;5304188;56;21167;-78
2021/09/20 03:03:45;;;;;;;6.77;3.93;;;;;;;11.78;79.98;100968.20;5258195;56;21290;-79
2021/09/20 03:08:50;;;;;;;7.97;3.53;;;;;;;11.75;79.93;100972.40;5303323;55;21203;-78
2021/09/20 03:13:56;;;;;;;11.17;3.87;;;;;;;11.73;79.96;100969.02;5303398;56;21180;-77
2021/09/20 03:19:02;;;;;;;6.80;4.27;;;;;;;11.70;79.83;100970.56;5303311;56;21187;-77
2021/09/20 03:24:10;;;;;;;5.40;4.10;;;;;;;11.58;79.82;100967.03;5303459;56;21295;-76
2021/09/20 03:29:15;;;;;;;7.57;3.70;;;;;;;11.52;80.17;100964.35;5293694;56;21586;-79
2021/09/20 03:34:20;;;;;;;3.50;3.20;;;;;;;11.49;80.20;100965.90;5209070;56;21653;-77
2021/09/20 03:39:26;;;;;;;8.70;3.47;;;;;;;11.42;80.15;100966.00;5141274;57;21129;-79
2021/09/20 03:44:33;;;;;;;4.83;3.57;;;;;;;11.38;80.35;100973.80;5151680;57;21192;-78
2021/09/20 03:49:39;;;;;;;7.00;3.40;;;;;;;11.32;80.54;100982.19;5148057;57;22331;-79
2021/09/20 03:54:45;;;;;;;8.00;3.40;;;;;;;11.24;80.58;100982.76;5141096;57;21227;-77
2021/09/20 03:59:52;;;;;;;5.77;3.87;;;;;;;11.26;80.82;100987.95;5141346;57;21223;-80
2021/09/20 04:04:57;;;;;;;9.80;4.23;;;;;;;11.35;81.06;100999.18;5141413;57;21195;-78
2021/09/20 04:10:04;;;;;;;9.00;4.10;;;;;;;11.46;81.39;100998.38;5141359;57;21851;-77
2021/09/20 04:15:11;;;;;;;8.63;4.10;;;;;;;11.50;81.30;101006.00;5141179;57;21124;-78
2021/09/20 04:20:17;;;;;;;8.83;4.23;;;;;;;11.50;80.91;101007.80;5151479;57;21519;-78
2021/09/20 04:25:23;;;;;;;9.90;4.20;;;;;;;11.40;80.82;101008.97;5151625;57;21102;-80
2021/09/20 04:30:28;;;;;;;7.87;3.97;;;;;;;11.42;80.90;101008.38;5151488;57;21129;-80
2021/09/20 04:35:34;;;;;;;7.93;5.00;;;;;;;11.38;80.29;101009.55;5150620;57;21158;-79
2021/09/20 04:40:41;;;;;;;9.37;5.53;;;;;;;11.35;80.29;101006.27;5142628;57;21112;-79
2021/09/20 04:45:48;;;;;;;10.57;4.83;;;;;;;11.33;80.75;101009.03;5142264;57;21210;-79
2021/09/20 04:50:57;;;;;;;8.23;5.13;;;;;;;11.12;79.82;100995.57;5142234;57;22320;-77
2021/09/20 04:56:01;;;;;;;9.33;5.20;;;;;;;10.82;79.67;100993.32;5142327;57;21172;-79
2021/09/20 05:01:07;;;;;;;5.17;3.83;;;;;;;10.60;80.13;101001.06;5142321;57;21465;-78
2021/09/20 05:06:13;;;;;;;9.23;5.07;;;;;;;10.67;81.08;101001.49;5143107;57;21180;-79
2021/09/20 05:11:18;;;;;;;7.57;4.20;;;;;;;10.54;80.87;101006.30;5143482;57;21171;-81
2021/09/20 05:16:24;;;;;;;21.57;5.50;;;;;;;10.52;81.64;101002.09;5142582;57;21112;-78
2021/09/20 05:21:30;;;;;;;10.70;5.83;;;;;;;10.58;82.23;101009.10;5142626;57;21202;-80
2021/09/20 05:26:35;;;;;;;14.47;5.77;;;;;;;10.67;82.49;101026.63;5142910;57;21112;-77
2021/09/20 05:31:42;;;;;;;7.83;4.70;;;;;;;10.76;82.94;101034.75;5143489;57;21167;-78
2021/09/20 05:36:47;;;;;;;10.17;4.77;;;;;;;10.89;82.95;101040.87;5177465;56;21188;-77
2021/09/20 05:41:54;;;;;;;15.43;5.40;;;;;;;10.98;82.74;101048.66;5210487;56;21188;-77
2021/09/20 05:47:00;;;;;;;8.17;5.37;;;;;;;11.01;82.85;101047.56;5210456;56;21228;-77
2021/09/20 05:52:06;;;;;;;10.30;4.93;;;;;;;11.03;83.02;101050.95;5210388;56;21258;-78
2021/09/20 05:57:12;;;;;;;8.00;5.30;;;;;;;11.06;82.98;101054.71;5210114;56;21692;-79
2021/09/20 06:02:17;;;;;;;10.33;5.30;;;;;;;11.03;82.72;101053.13;5209881;56;21184;-77
2021/09/20 06:07:23;;;;;;;10.80;5.13;;;;;;;11.05;83.38;101061.80;5209872;56;21211;-78
2021/09/20 06:12:29;;;;;;;14.40;4.63;;;;;;;11.08;83.54;101066.04;5210014;56;21251;-77
2021/09/20 06:17:35;;;;;;;7.70;4.37;;;;;;;11.08;83.55;101062.92;5209318;56;21231;-77
2021/09/20 06:22:41;;;;;;;10.73;4.97;;;;;;;11.15;83.66;101054.89;5208736;56;21647;-76
2021/09/20 06:27:47;;;;;;;6.23;4.40;;;;;;;11.14;83.93;101062.50;5209549;56;22297;-78
2021/09/20 06:32:53;;;;;;;8.30;4.80;;;;;;;11.10;83.94;101062.81;5211301;56;21204;-88
2021/09/20 06:37:59;;;;;;;20.30;8.80;;;;;;;11.07;83.93;101068.31;5179332;56;21167;-86
2021/09/20 06:43:06;;;;;;;10.20;4.63;;;;;;;11.04;84.30;101070.70;5168168;57;21235;-87
2021/09/20 06:48:12;;;;;;;11.60;5.73;;;;;;;11.04;84.40;101071.17;5167409;57;21124;-86
2021/09/20 06:53:18;;;;;;;6.27;4.70;;;;;;;11.06;84.64;101070.59;5167631;57;21204;-85
2021/09/20 06:58:24;;;;;;;8.33;4.30;;;;;;;11.13;84.75;101076.69;5167219;57;21112;-82
2021/09/20 07:03:30;;;;;;;5.70;5.03;;;;;;;11.07;85.00;101069.16;5166850;57;21167;-86
2021/09/20 07:08:36;;;;;;;5.87;4.80;;;;;;;11.04;85.10;101072.50;5166861;57;21626;-86
2021/09/20 07:13:42;;;;;;;6.77;4.90;;;;;;;11.05;85.45;101073.72;5166087;57;21492;-86
2021/09/20 07:18:48;;;;;;;4.70;4.17;;;;;;;11.11;85.79;101083.03;5164196;57;21166;-85
2021/09/20 07:23:55;;;;;;;8.30;3.83;;;;;;;11.20;85.94;101080.57;5164236;57;21228;-85
2021/09/20 07:29:06;;;;;;;6.67;4.40;;;;;;;11.24;85.74;101089.15;5143559;57;21243;-87
2021/09/20 07:34:12;;;;;;;5.20;4.40;;;;;;;11.31;85.72;101096.16;5165203;57;21246;-88
2021/09/20 07:39:18;;;;;;;9.13;5.83;;;;;;;11.35;85.95;101098.48;5165230;57;21252;-88
2021/09/20 07:44:24;;;;;;;12.47;6.40;;;;;;;11.38;85.66;101099.59;5166177;57;21240;-88
2021/09/20 07:49:30;;;;;;;6.70;4.77;;;;;;;11.41;85.75;101101.19;5167279;57;21183;-87
2021/09/20 07:54:36;;;;;;;10.13;4.90;;;;;;;11.45;85.67;101102.19;5167701;57;21164;-86
2021/09/20 07:59:42;;;;;;;5.63;4.33;;;;;;;11.54;85.72;101103.31;5167500;57;21546;-87
2021/09/20 08:04:48;;;;;;;7.80;4.57;;;;;;;11.55;85.64;101103.20;5164933;57;21553;-88
2021/09/20 08:09:53;;;;;;;12.63;6.43;;;;;;;11.63;85.59;101106.13;5164811;57;21183;-89
2021/09/20 08:14:59;;;;;;;7.23;4.83;;;;;;;11.70;85.63;101100.40;5167516;57;21167;-87
2021/09/20 08:20:08;;;;;;;4.60;3.50;;;;;;;11.83;85.66;101106.05;5167927;57;21731;-88
2021/09/20 08:25:13;;;;;;;8.23;3.43;;;;;;;11.94;85.32;101105.25;5147989;57;21171;-88
2021/09/20 08:30:22;;;;;;;6.60;3.83;;;;;;;12.04;84.98;101110.73;5168997;57;21465;-87
2021/09/20 08:35:28;;;;;;;4.50;4.10;;;;;;;12.14;84.60;101113.90;5140570;57;22417;-88
2021/09/20 08:40:34;;;;;;;7.53;3.93;;;;;;;12.21;84.48;101116.95;5143367;57;21188;-87
2021/09/20 08:45:40;;;;;;;8.43;4.70;;;;;;;12.41;84.96;101114.95;5143833;57;21182;-88
2021/09/20 08:50:46;;;;;;;8.73;3.60;;;;;;;12.57;84.52;101110.17;5142416;57;21193;-88
2021/09/20 08:55:52;;;;;;;5.67;3.57;;;;;;;12.86;84.47;101108.41;5142095;57;21532;-86
2021/09/20 09:00:57;;;;;;;6.47;3.00;;;;;;;13.29;85.02;101111.24;5141341;57;21129;-86
2021/09/20 09:06:04;;;;;;;6.33;2.80;;;;;;;13.78;83.11;101108.11;5140195;57;21835;-86
2021/09/20 09:11:15;;;;;;;5.70;2.53;;;;;;;14.01;81.57;101111.56;5139321;57;21190;-86
2021/09/20 09:16:27;;;;;;;3.60;2.80;;;;;;;14.16;80.75;101116.09;5139346;57;21191;-87
2021/09/20 09:21:45;;;;;;;8.17;3.27;;;;;;;14.26;79.40;101118.34;5140759;57;21203;-85
2021/09/20 09:27:00;;;;;;;12.93;3.17;;;;;;;14.28;78.51;101115.91;5142399;57;21196;-86
2021/09/20 09:32:06;;;;;;;5.30;3.00;;;;;;;14.29;77.34;101108.29;5142963;57;21137;-86
2021/09/20 09:37:15;;;;;;;4.27;3.23;;;;;;;14.35;77.75;101107.78;5143932;57;21554;-86
2021/09/20 09:42:29;;;;;;;6.40;2.60;;;;;;;14.55;78.68;101101.27;5144893;57;21124;-87
2021/09/20 09:47:35;;;;;;;3.90;1.93;;;;;;;14.78;76.07;101105.50;5144834;57;21203;-85
2021/09/20 09:52:42;;;;;;;7.17;2.60;;;;;;;15.03;74.06;101094.88;5144954;57;21533;-86
2021/09/20 09:57:52;;;;;;;1.87;1.50;;;;;;;15.10;74.62;101104.89;5144733;57;21782;-86
2021/09/20 10:02:57;;;;;;;1.40;1.30;;;;;;;15.36;73.88;101099.92;5144006;57;21614;-86
2021/09/20 10:08:12;;;;;;;1.73;1.63;;;;;;;15.55;70.35;101103.17;5144839;57;22315;-87
2021/09/20 10:13:19;;;;;;;1.80;1.70;;;;;;;15.79;71.43;101106.78;5167012;57;21191;-85
2021/09/20 10:18:24;;;;;;;4.50;1.47;;;;;;;15.77;70.81;101110.08;5166605;57;21194;-86
2021/09/20 10:23:30;;;;;;;1.63;1.53;;;;;;;15.71;70.53;101118.64;5166569;57;21191;-86
2021/09/20 10:28:37;;;;;;;2.80;1.37;;;;;;;15.56;68.89;101124.86;5167299;57;21164;-86
2021/09/20 10:33:42;;;;;;;3.43;1.40;;;;;;;15.30;68.14;101122.27;5167174;57;21182;-84
2021/09/20 10:38:53;;;;;;;1.63;1.13;;;;;;;15.13;68.43;101121.91;5118020;56;21125;-84
2021/09/20 10:44:08;;;;;;;1.53;1.40;;;;;;;15.14;69.16;101116.94;5212005;56;21181;-83
2021/09/20 10:49:25;;;;;;;4.30;1.30;;;;;;;15.53;68.91;101121.58;5211915;56;21462;-86
2021/09/20 10:54:31;;;;;;;1.63;1.50;;;;;;;16.02;68.12;101123.39;5211679;56;22513;-83
2021/09/20 10:59:37;;;;;;;3.90;1.20;;;;;;;16.37;66.80;101116.14;5163458;56;21209;-82
2021/09/20 11:04:43;;;;;;;1.43;1.30;;;;;;;16.72;67.17;101112.41;5179566;56;21173;-83
2021/09/20 11:10:07;;;;;;;5.00;1.73;;;;;;;16.65;64.95;101123.81;5026219;58;21219;-84
2021/09/20 11:15:18;;;;;;;3.90;1.80;;;;;;;16.39;64.29;101129.70;5100474;58;21271;-86
2021/09/20 11:20:35;;;;;;;3.57;1.63;;;;;;;16.35;65.10;101130.11;5045652;57;21128;-86
2021/09/20 11:25:41;;;;;;;6.07;1.70;;;;;;;16.37;65.02;101132.16;5234324;56;21436;-85
2021/09/20 11:30:47;;;;;;;2.57;1.30;;;;;;;16.52;62.95;101115.56;5233818;56;21206;-82
2021/09/20 11:35:54;;;;;;;2.30;1.20;;;;;;;16.74;59.00;101121.12;5145576;56;21378;-81
2021/09/20 11:41:00;;;;;;;3.53;1.30;;;;;;;16.94;59.63;101121.91;5162925;56;21235;-80
2021/09/20 11:46:09;;;;;;;1.70;1.60;;;;;;;16.83;60.29;101126.07;5247758;56;21258;-80
2021/09/20 11:51:18;;;;;;;5.90;1.67;;;;;;;16.53;59.43;101131.94;5248938;56;22530;-80
2021/09/20 11:56:33;;;;;;;6.00;1.53;;;;;;;16.33;60.64;101134.29;5234891;56;21188;-80
2021/09/20 12:01:52;;;;;;;4.37;1.20;;;;;;;16.23;60.79;101143.26;5221846;56;21252;-80
2021/09/20 12:06:58;;;;;;;1.40;1.10;;;;;;;16.27;61.93;101142.84;5169822;56;21172;-81
2021/09/20 12:12:09;;;;;;;4.03;1.27;;;;;;;16.61;62.15;101139.73;5169838;56;21137;-81
2021/09/20 12:17:21;;;;;;;3.30;1.10;;;;;;;17.02;58.54;101132.70;5171056;56;21160;-80
2021/09/20 12:22:39;;;;;;;5.50;0.90;;;;;;;17.14;57.87;101140.89;5170119;56;21129;-80
2021/09/20 12:27:47;;;;;;;3.30;0.80;;;;;;;17.36;57.98;101133.49;5149886;56;21085;-79
2021/09/20 12:33:05;;;;;;;3.70;0.93;;;;;;;17.50;56.95;101141.87;5174339;56;21098;-82
2021/09/20 12:38:35;;;;;;;3.07;0.77;;;;;;;17.47;55.30;101133.30;5189225;56;21499;-80
2021/09/20 12:43:43;;;;;;;4.03;0.90;;;;;;;17.73;56.27;101140.14;5202414;56;21691;-79
2021/09/20 12:48:55;;;;;;;5.27;0.60;;;;;;;17.66;54.58;101150.62;5204664;56;21171;-80
2021/09/20 12:54:01;;;;;;;1.50;1.40;;;;;;;17.46;53.58;101147.66;5204411;56;21195;-79
2021/09/20 12:59:17;;;;;;;11.13;1.67;;;;;;;17.23;54.48;101145.37;5202132;56;21502;-80
2021/09/20 13:04:33;;;;;;;4.37;1.10;;;;;;;17.41;54.03;101142.77;5204906;56;21163;-79
2021/09/20 13:09:44;;;;;;;8.97;1.53;;;;;;;17.67;53.25;101134.07;5204052;56;21148;-79
2021/09/20 13:14:57;;;;;;;1.50;1.23;;;;;;;17.76;52.95;101147.38;5162482;56;21136;-79
2021/09/20 13:20:27;;;;;;;3.12;1.17;;;;;;;17.71;53.04;101160.38;5207577;56;21125;-79
2021/09/20 13:25:52;;;;;;;4.93;1.30;;;;;;;17.48;53.61;101159.05;5204741;56;21144;-79
2021/09/20 13:31:01;;;;;;;1.30;1.30;;;;;;;17.23;52.62;101164.09;5203607;56;22106;-80
2021/09/20 13:36:10;;;;;;;2.23;1.30;;;;;;;17.21;54.38;101170.07;5204634;56;21160;-80
2021/09/20 13:41:17;;;;;;;3.67;1.13;;;;;;;17.17;53.53;101182.03;5218050;56;21144;-80
2021/09/20 13:46:26;;;;;;;4.37;1.33;;;;;;;17.05;53.89;101180.53;5219637;56;21613;-80
2021/09/20 13:51:32;;;;;;;1.37;1.07;;;;;;;17.00;54.85;101184.61;5218250;56;22001;-80
2021/09/20 13:56:38;;;;;;;6.00;1.73;;;;;;;16.91;55.09;101188.16;5036213;58;21235;-80
2021/09/20 14:01:43;;;;;;;4.00;0.87;;;;;;;16.94;55.33;101189.21;5108508;57;21113;-79
2021/09/20 14:06:50;;;;;;;3.97;1.67;;;;;;;17.07;54.90;101188.41;5108146;57;21637;-80
2021/09/20 14:11:56;;;;;;;6.00;1.27;;;;;;;17.36;56.19;101196.33;5067240;57;21198;-79
2021/09/20 14:17:02;;;;;;;11.80;1.70;;;;;;;17.64;55.33;101187.38;5060369;57;21197;-80
2021/09/20 14:22:09;;;;;;;5.37;1.53;;;;;;;17.59;53.56;101200.30;4996815;59;21182;-80
2021/09/20 14:27:16;;;;;;;2.37;1.87;;;;;;;17.35;52.72;101201.33;5029324;59;21173;-82
2021/09/20 14:32:22;;;;;;;1.97;1.70;;;;;;;17.02;53.54;101207.53;4996691;59;21210;-81
2021/09/20 14:37:28;;;;;;;2.70;1.90;;;;;;;16.84;53.72;101216.77;5119057;57;21155;-82
2021/09/20 14:42:34;;;;;;;5.17;2.17;;;;;;;16.71;54.54;101220.72;5026371;59;21108;-81
2021/09/20 14:47:41;;;;;;;5.07;2.53;;;;;;;16.57;54.05;101223.30;5111457;58;21172;-81
2021/09/20 14:52:48;;;;;;;3.60;2.37;;;;;;;16.54;55.13;101221.74;5026284;59;21162;-80
2021/09/20 14:57:54;;;;;;;14.30;6.93;;;;;;;16.69;55.04;101222.20;5062181;58;21176;-80
2021/09/20 15:03:00;;;;;;;3.23;1.93;;;;;;;16.93;54.52;101220.44;5026402;59;21162;-81
2021/09/20 15:08:06;;;;;;;2.00;1.80;;;;;;;17.12;54.51;101219.04;5111198;58;22125;-80
2021/09/20 15:13:12;;;;;;;8.13;3.17;;;;;;;17.29;54.02;101217.94;5026360;59;21692;-80
2021/09/20 15:18:18;;;;;;;16.47;2.10;;;;;;;17.40;52.10;101223.14;5072609;58;21185;-83
2021/09/20 15:23:24;;;;;;;7.80;2.20;;;;;;;17.25;50.98;101232.12;5067848;58;21242;-82
2021/09/20 15:28:29;;;;;;;8.27;4.63;;;;;;;17.18;52.12;101233.17;5067784;58;21181;-80
2021/09/20 15:33:35;;;;;;;7.40;3.27;;;;;;;17.17;51.29;101234.16;5201372;56;21125;-81
2021/09/20 15:38:41;;;;;;;3.93;2.67;;;;;;;17.06;51.71;101238.83;5188144;56;21153;-81
2021/09/20 15:43:47;;;;;;;13.93;1.93;;;;;;;16.90;52.33;101245.25;5222439;56;21188;-81
2021/09/20 15:48:53;;;;;;;9.57;2.10;;;;;;;16.69;53.15;101247.57;5222874;56;21172;-81
2021/09/20 15:53:58;;;;;;;9.47;3.30;;;;;;;16.58;53.63;101254.85;4998229;58;21140;-81
2021/09/20 15:59:04;;;;;;;4.77;2.80;;;;;;;16.41;54.46;101261.23;5104023;58;21534;-80
2021/09/20 16:04:10;;;;;;;6.33;3.97;;;;;;;16.33;55.08;101266.43;5021828;59;21801;-80
2021/09/20 16:09:18;;;;;;;3.77;3.47;;;;;;;16.41;55.52;101267.91;5058745;58;21208;-80
2021/09/20 16:14:24;;;;;;;4.13;2.90;;;;;;;16.50;55.47;101267.06;5201492;56;21664;-81
2021/09/20 16:19:39;;;;;;;4.70;2.77;;;;;;;16.57;55.74;101265.18;5182095;56;21705;-80
2021/09/20 16:24:43;;;;;;;34.10;5.95;;;;;;;16.59;55.47;101265.89;5172761;56;21142;-80
2021/09/20 16:29:56;;;;;;;16.20;7.50;;;;;;;16.47;55.68;101266.52;5174257;56;21155;-79
2021/09/20 16:35:01;;;;;;;18.20;9.53;;;;;;;16.34;56.07;101274.80;5172217;56;21600;-80
2021/09/20 16:40:13;;;;;;;49.33;8.93;;;;;;;16.24;56.37;101273.06;5189254;56;21193;-80
2021/09/20 16:45:21;;;;;;;61.57;10.40;;;;;;;16.09;56.44;101272.61;5219445;56;21140;-79
2021/09/20 16:50:27;;;;;;;57.57;25.43;;;;;;;16.02;57.05;101282.16;5228334;56;21644;-81
2021/09/20 16:55:32;;;;;;;77.70;28.37;;;;;;;15.96;57.34;101288.02;5210500;56;21183;-81
2021/09/20 17:00:38;;;;;;;57.43;23.70;;;;;;;15.83;57.64;101289.09;5187490;57;21204;-81
2021/09/20 17:05:45;;;;;;;75.47;32.23;;;;;;;15.53;57.83;101290.87;5188944;57;21203;-81
2021/09/20 17:10:51;;;;;;;95.93;55.03;;;;;;;15.33;58.50;101300.57;5188982;57;21654;-81
2021/09/20 17:15:57;;;;;;;143.63;82.00;;;;;;;15.16;59.07;101309.14;5188812;57;22441;-81
2021/09/20 17:21:03;;;;;;;136.30;73.07;;;;;;;14.92;59.71;101314.23;5189771;57;21164;-81
2021/09/20 17:26:09;;;;;;;275.83;127.17;;;;;;;14.84;60.34;101316.67;5190128;57;21204;-81
2021/09/20 17:31:16;;;;;;;257.30;105.53;;;;;;;14.66;60.60;101325.72;5190024;57;21181;-81
2021/09/20 17:36:22;;;;;;;45.80;19.17;;;;;;;14.51;61.10;101328.30;5182559;56;21100;-81
2021/09/20 17:41:28;;;;;;;275.83;77.27;;;;;;;14.16;61.38;101337.75;5186634;57;21569;-82
2021/09/20 17:46:35;;;;;;;197.80;53.87;;;;;;;13.95;62.04;101338.10;5204299;57;22479;-81
2021/09/20 17:51:42;;;;;;;172.10;48.73;;;;;;;13.93;62.73;101345.34;5204653;57;21542;-81
2021/09/20 17:56:49;;;;;;;179.20;50.73;;;;;;;13.93;63.16;101348.01;5204799;57;21167;-81
2021/09/20 18:01:57;;;;;;;79.10;21.27;;;;;;;13.78;63.05;101346.55;5204332;57;21159;-81
2021/09/20 18:07:03;;;;;;;54.63;17.80;;;;;;;13.38;62.92;101358.45;5204759;57;21191;-81
2021/09/20 18:12:14;;;;;;;23.07;10.57;;;;;;;13.01;63.58;101367.44;5204821;57;21571;-81
2021/09/20 18:17:21;;;;;;;170.93;44.23;;;;;;;12.96;64.58;101365.14;5204842;57;21194;-81
2021/09/20 18:22:27;;;;;;;226.20;57.27;;;;;;;13.07;65.30;101366.14;5202320;57;21821;-81
2021/09/20 18:27:32;;;;;;;122.53;46.63;;;;;;;13.17;65.40;101360.53;5201607;57;21158;-81
2021/09/20 18:32:38;;;;;;;56.33;30.70;;;;;;;13.25;65.58;101365.66;5202002;57;21163;-81
2021/09/20 18:37:44;;;;;;;43.40;15.67;;;;;;;13.24;65.64;101367.09;5263550;56;21168;-81
2021/09/20 18:42:52;;;;;;;32.20;16.63;;;;;;;13.28;65.67;101371.22;5268748;56;21192;-81
2021/09/20 18:47:58;;;;;;;47.80;21.97;;;;;;;13.34;65.87;101376.91;5254503;56;21192;-81
2021/09/20 18:53:04;;;;;;;55.90;24.87;;;;;;;13.23;65.57;101386.65;5255354;56;21491;-82
2021/09/20 18:58:10;;;;;;;42.27;20.03;;;;;;;13.23;66.27;101391.96;5257568;55;21479;-84
2021/09/20 19:03:17;;;;;;;45.67;24.93;;;;;;;13.23;66.44;101391.96;5265951;56;21180;-84
2021/09/20 19:08:23;;;;;;;79.80;32.60;;;;;;;13.18;66.25;101399.41;5266161;56;21172;-86
2021/09/20 19:13:31;;;;;;;88.23;37.70;;;;;;;13.09;66.20;101402.73;5266420;56;21209;-85
2021/09/20 19:18:38;;;;;;;84.60;39.70;;;;;;;12.90;65.94;101406.73;5266961;56;21586;-86
2021/09/20 19:23:44;;;;;;;102.33;43.67;;;;;;;12.63;65.75;101407.42;5266843;56;21113;-84
2021/09/20 19:28:50;;;;;;;97.13;37.60;;;;;;;12.35;66.47;101409.87;5266332;56;21156;-85
2021/09/20 19:33:57;;;;;;;70.30;28.17;;;;;;;12.20;66.77;101410.95;5266130;56;21093;-85
2021/09/20 19:39:04;;;;;;;110.30;41.63;;;;;;;12.15;67.64;101415.72;5211669;56;21186;-84
2021/09/20 19:44:10;;;;;;;124.83;50.67;;;;;;;12.21;68.02;101418.81;5224323;56;21649;-85
2021/09/20 19:49:16;;;;;;;222.20;108.83;;;;;;;12.33;68.31;101421.07;5230180;56;21155;-86
2021/09/20 19:54:22;;;;;;;210.67;98.57;;;;;;;12.35;68.29;101425.80;5230347;56;21135;-83
2021/09/20 19:59:27;;;;;;;102.77;46.07;;;;;;;12.37;68.45;101433.65;5230161;56;21162;-78
2021/09/20 20:04:34;;;;;;;58.13;25.53;;;;;;;12.33;68.51;101435.19;5131019;58;22093;-77
2021/09/20 20:09:42;;;;;;;42.07;21.00;;;;;;;12.28;68.59;101437.78;5053847;58;21171;-80
2021/09/20 20:14:47;;;;;;;43.37;21.07;;;;;;;12.21;68.86;101440.02;5131221;58;21190;-79
2021/09/20 20:19:56;;;;;;;33.43;18.00;;;;;;;12.14;68.64;101445.38;5131677;58;21179;-79
2021/09/20 20:25:03;;;;;;;60.33;29.73;;;;;;;12.13;69.28;101452.95;5131670;58;21159;-79
2021/09/20 20:30:12;;;;;;;70.70;32.23;;;;;;;11.84;68.81;101458.93;5131498;58;21213;-79
2021/09/20 20:35:18;;;;;;;67.73;33.53;;;;;;;11.63;69.70;101469.12;5133984;57;21204;-80
2021/09/20 20:40:26;;;;;;;43.70;20.10;;;;;;;11.61;70.38;101466.20;5142740;57;22184;-79
2021/09/20 20:45:31;;;;;;;43.00;22.17;;;;;;;11.65;70.94;101469.03;5116835;57;21109;-79
2021/09/20 20:50:37;;;;;;;43.63;22.77;;;;;;;11.70;71.06;101474.88;5117099;58;21142;-79
2021/09/20 20:55:43;;;;;;;43.60;20.43;;;;;;;11.74;70.98;101477.70;5109979;58;22515;-80
2021/09/20 21:00:49;;;;;;;55.17;23.30;;;;;;;11.66;70.31;101477.83;5109473;58;21196;-81
2021/09/20 21:05:55;;;;;;;39.10;19.13;;;;;;;11.41;70.27;101487.89;5109690;58;21272;-79
2021/09/20 21:11:00;;;;;;;62.10;27.60;;;;;;;11.04;70.55;101489.41;5109510;58;21670;-82
2021/09/20 21:16:06;;;;;;;67.53;30.33;;;;;;;10.81;71.45;101498.83;5110232;58;21192;-81
2021/09/20 21:21:12;;;;;;;66.27;29.80;;;;;;;10.86;72.36;101500.22;5110193;58;21129;-78
2021/09/20 21:26:18;;;;;;;73.87;29.60;;;;;;;10.95;72.75;101506.74;5110527;58;21677;-80
2021/09/20 21:31:24;;;;;;;57.07;24.77;;;;;;;11.05;72.80;101508.32;5111600;58;21216;-79
2021/09/20 21:36:30;;;;;;;45.07;20.53;;;;;;;10.90;71.89;101512.31;5111347;58;21214;-81
2021/09/20 21:41:36;;;;;;;54.90;24.63;;;;;;;10.77;72.22;101518.48;5111408;58;21488;-77
2021/09/20 21:46:42;;;;;;;60.23;27.63;;;;;;;10.89;73.50;101518.55;5056055;56;21116;-80
2021/09/20 21:51:48;;;;;;;67.93;27.20;;;;;;;11.09;73.89;101524.39;5059059;58;22412;-80
2021/09/20 21:56:53;;;;;;;62.37;28.63;;;;;;;11.16;73.59;101515.94;4972393;59;21194;-79
2021/09/20 22:01:59;;;;;;;59.07;27.83;;;;;;;11.09;73.06;101525.24;5102172;57;21196;-80
2021/09/20 22:07:05;;;;;;;58.67;25.43;;;;;;;11.10;73.47;101524.77;5111043;58;21184;-80
2021/09/20 22:12:11;;;;;;;58.63;24.60;;;;;;;11.04;72.95;101533.94;5111280;58;21249;-81
2021/09/20 22:17:17;;;;;;;54.50;24.10;;;;;;;10.71;72.30;101540.02;5110988;57;21200;-78
2021/09/20 22:22:23;;;;;;;50.53;24.00;;;;;;;10.42;72.76;101539.16;5111113;58;21252;-78
2021/09/20 22:27:29;;;;;;;58.07;25.07;;;;;;;10.28;73.50;101541.78;5111235;58;21295;-77
2021/09/20 22:32:36;;;;;;;52.27;24.30;;;;;;;10.23;73.97;101548.19;5111959;57;21196;-80
2021/09/20 22:37:42;;;;;;;45.50;22.80;;;;;;;10.36;75.01;101548.33;5165939;57;21147;-79
2021/09/20 22:42:48;;;;;;;45.73;20.87;;;;;;;10.53;75.30;101545.52;5189233;57;22366;-81
2021/09/20 22:47:54;;;;;;;36.37;16.83;;;;;;;10.67;75.19;101547.79;5316621;55;21467;-79
2021/09/20 22:53:00;;;;;;;33.10;14.97;;;;;;;10.81;74.85;101548.63;5318431;55;21164;-82
2021/09/20 22:58:06;;;;;;;35.07;15.67;;;;;;;10.61;74.00;101551.65;5318353;55;21279;-82
2021/09/20 23:03:11;;;;;;;39.53;19.70;;;;;;;10.44;74.23;101551.35;5318269;55;21167;-80
2021/09/20 23:08:17;;;;;;;38.40;17.67;;;;;;;10.29;74.73;101552.27;5317919;55;21163;-78
2021/09/20 23:13:23;;;;;;;33.73;18.00;;;;;;;10.29;75.35;101554.92;5318081;55;21475;-80
2021/09/20 23:18:29;;;;;;;29.23;15.80;;;;;;;10.38;75.81;101549.09;5318153;55;21169;-78
2021/09/20 23:23:34;;;;;;;33.50;16.17;;;;;;;10.51;75.63;101555.34;5318036;55;21164;-81
2021/09/20 23:28:40;;;;;;;47.20;19.33;;;;;;;10.60;75.54;101545.98;5318007;55;21641;-77
2021/09/20 23:33:46;;;;;;;35.17;19.60;;;;;;;10.63;75.14;101539.66;5294317;56;21519;-81